createdAt,value
2023-03-22T00:02:05.154Z,12.57
2023-03-22T00:04:26.591Z,10.43
2023-03-22T00:06:48.066Z,10.37
2023-03-22T00:09:09.507Z,8.40
2023-03-22T00:11:30.958Z,9.40
2023-03-22T00:13:53.678Z,10.70
2023-03-22T00:16:15.691Z,9.23
2023-03-22T00:18:37.677Z,9.50
2023-03-22T00:20:59.736Z,9.77
2023-03-22T00:23:22.244Z,10.63
2023-03-22T00:25:47.373Z,9.00
2023-03-22T00:28:08.825Z,8.67
2023-03-22T00:30:30.437Z,10.70
2023-03-22T00:32:51.896Z,9.10
2023-03-22T00:35:13.357Z,11.70
2023-03-22T00:37:38.721Z,10.80
2023-03-22T00:40:01.291Z,13.03
2023-03-22T00:42:22.771Z,12.70
2023-03-22T00:44:44.229Z,10.37
2023-03-22T00:47:05.905Z,9.37
2023-03-22T00:49:27.401Z,10.30
2023-03-22T00:51:49.012Z,9.00
2023-03-22T00:54:10.669Z,11.87
2023-03-22T00:56:34.012Z,14.43
2023-03-22T00:58:55.784Z,11.97
2023-03-22T01:01:17.490Z,10.67
2023-03-22T01:03:39.363Z,9.57
2023-03-22T01:06:01.131Z,11.37
2023-03-22T01:08:23.929Z,10.37
2023-03-22T01:10:45.477Z,13.13
2023-03-22T01:13:08.166Z,10.17
2023-03-22T01:15:29.895Z,12.53
2023-03-22T01:17:51.973Z,12.53
2023-03-22T01:20:13.736Z,9.47
2023-03-22T01:22:35.485Z,9.57
2023-03-22T01:24:57.025Z,9.37
2023-03-22T01:27:18.548Z,11.67
2023-03-22T01:29:40.210Z,10.30
2023-03-22T01:32:01.725Z,10.07
2023-03-22T01:34:23.223Z,11.13
2023-03-22T01:36:44.953Z,10.77
2023-03-22T01:39:06.905Z,9.93
2023-03-22T01:41:28.489Z,10.27
2023-03-22T01:44:16.405Z,9.57
2023-03-22T01:46:38.720Z,11.30
2023-03-22T01:49:02.596Z,9.10
2023-03-22T01:51:27.726Z,12.73
2023-03-22T01:53:53.493Z,8.70
2023-03-22T01:56:16.361Z,12.07
2023-03-22T01:58:38.798Z,11.37
2023-03-22T02:01:00.625Z,15.70
2023-03-22T02:03:37.952Z,10.90
2023-03-22T02:06:00.174Z,11.17
2023-03-22T02:08:21.813Z,12.50
2023-03-22T02:10:43.435Z,14.37
2023-03-22T02:13:29.769Z,12.40
2023-03-22T02:16:12.803Z,11.80
2023-03-22T02:18:43.280Z,11.00
2023-03-22T02:21:35.710Z,13.73
2023-03-22T02:24:35.000Z,12.53
2023-03-22T02:27:18.541Z,13.50
2023-03-22T02:30:14.816Z,12.17
2023-03-22T02:33:17.569Z,11.77
2023-03-22T02:35:52.452Z,13.53
2023-03-22T02:38:43.341Z,11.73
2023-03-22T02:41:18.488Z,14.93
2023-03-22T02:43:52.184Z,16.70
2023-03-22T02:46:30.653Z,15.20
2023-03-22T02:49:26.435Z,12.23
2023-03-22T02:51:59.987Z,11.27
2023-03-22T02:54:35.371Z,13.37
2023-03-22T02:57:15.812Z,14.77
2023-03-22T02:59:41.014Z,13.67
2023-03-22T03:02:03.806Z,13.63
2023-03-22T03:04:31.095Z,14.37
2023-03-22T03:06:57.378Z,12.60
2023-03-22T03:09:20.652Z,12.93
2023-03-22T03:11:42.244Z,11.97
2023-03-22T03:14:03.704Z,13.00
2023-03-22T03:16:29.437Z,11.83
2023-03-22T03:18:58.063Z,17.27
2023-03-22T03:21:25.443Z,13.87
2023-03-22T03:24:11.451Z,13.00
2023-03-22T03:26:54.450Z,13.63
2023-03-22T03:29:43.160Z,10.57
2023-03-22T03:32:09.954Z,11.47
2023-03-22T03:34:57.896Z,9.80
2023-03-22T03:37:24.739Z,14.50
2023-03-22T03:39:54.323Z,13.07
2023-03-22T03:42:17.718Z,11.57
2023-03-22T03:44:39.807Z,12.80
2023-03-22T03:47:02.192Z,13.13
2023-03-22T03:49:23.864Z,12.60
2023-03-22T03:51:48.388Z,12.57
2023-03-22T03:54:09.880Z,15.87
2023-03-22T03:56:31.370Z,14.90
2023-03-22T03:58:52.845Z,17.77
2023-03-22T04:01:15.993Z,17.50
2023-03-22T04:03:37.854Z,14.13
2023-03-22T04:05:59.811Z,17.40
2023-03-22T04:08:21.434Z,14.63
2023-03-22T04:10:42.907Z,14.73
2023-03-22T04:13:04.443Z,17.30
2023-03-22T04:15:25.898Z,18.87
2023-03-22T04:17:47.443Z,17.43
2023-03-22T04:20:11.987Z,18.17
2023-03-22T04:22:38.463Z,15.33
2023-03-22T04:25:01.415Z,15.07
2023-03-22T04:27:22.934Z,15.73
2023-03-22T04:29:51.363Z,20.57
2023-03-22T04:32:12.871Z,12.70
2023-03-22T04:34:34.344Z,15.13
2023-03-22T04:36:55.774Z,18.47
2023-03-22T04:39:17.228Z,16.53
2023-03-22T04:41:39.797Z,17.27
2023-03-22T04:44:04.152Z,14.43
2023-03-22T04:46:25.803Z,15.20
2023-03-22T04:48:47.296Z,18.40
2023-03-22T04:51:11.053Z,13.97
2023-03-22T04:53:32.889Z,15.80
2023-03-22T04:55:57.128Z,14.90
2023-03-22T04:58:22.171Z,17.20
2023-03-22T05:00:43.620Z,15.07
2023-03-22T05:03:05.847Z,14.80
2023-03-22T05:05:27.338Z,13.70
2023-03-22T05:07:48.914Z,13.97
2023-03-22T05:10:10.818Z,15.77
2023-03-22T05:12:32.350Z,17.53
2023-03-22T05:14:53.806Z,17.23
2023-03-22T05:17:15.374Z,17.83
2023-03-22T05:19:36.920Z,16.00
2023-03-22T05:22:01.959Z,15.50
2023-03-22T05:24:23.661Z,15.17
2023-03-22T05:26:45.133Z,13.23
2023-03-22T05:29:06.903Z,15.60
2023-03-22T05:31:28.672Z,12.63
2023-03-22T05:33:54.360Z,12.37
2023-03-22T05:36:17.070Z,13.77
2023-03-22T05:38:38.649Z,13.33
2023-03-22T05:41:00.415Z,15.63
2023-03-22T05:43:21.906Z,16.57
2023-03-22T05:45:43.420Z,17.10
2023-03-22T05:48:05.485Z,16.47
2023-03-22T05:50:27.468Z,12.50
2023-03-22T05:52:49.578Z,14.93
2023-03-22T05:55:12.651Z,13.37
2023-03-22T05:57:34.180Z,15.93
2023-03-22T05:59:57.132Z,15.50
2023-03-22T06:02:18.716Z,35.97
2023-03-22T06:04:41.667Z,39.63
2023-03-22T06:07:03.222Z,29.47
2023-03-22T06:09:24.754Z,33.47
2023-03-22T06:11:46.253Z,20.37
2023-03-22T06:14:07.807Z,15.57
2023-03-22T06:16:29.310Z,16.67
2023-03-22T06:18:50.885Z,19.43
2023-03-22T06:21:12.332Z,18.13
2023-03-22T06:23:33.835Z,18.87
2023-03-22T06:25:55.452Z,13.77
2023-03-22T06:28:17.033Z,14.20
2023-03-22T06:30:38.940Z,14.10
2023-03-22T06:33:04.367Z,18.63
2023-03-22T06:35:26.286Z,18.70
2023-03-22T06:37:47.764Z,16.50
2023-03-22T06:40:10.038Z,15.20
2023-03-22T06:42:31.606Z,15.17
2023-03-22T06:44:53.036Z,16.70
2023-03-22T06:47:14.494Z,14.03
2023-03-22T06:49:35.994Z,14.07
2023-03-22T06:51:57.527Z,16.07
2023-03-22T06:54:19.141Z,13.80
2023-03-22T06:56:40.636Z,12.97
2023-03-22T06:59:02.172Z,11.60
2023-03-22T07:01:24.802Z,14.53
2023-03-22T07:03:46.469Z,12.10
2023-03-22T07:06:08.799Z,11.30
2023-03-22T07:08:30.580Z,9.33
2023-03-22T07:10:52.078Z,14.50
2023-03-22T07:13:13.539Z,11.27
2023-03-22T07:15:35.167Z,12.77
2023-03-22T07:17:56.792Z,9.87
2023-03-22T07:20:19.777Z,9.17
2023-03-22T07:22:41.297Z,10.43
2023-03-22T07:25:02.845Z,13.87
2023-03-22T07:27:24.642Z,14.90
2023-03-22T07:29:46.358Z,9.57
2023-03-22T07:32:07.902Z,12.87
2023-03-22T07:34:29.410Z,12.47
2023-03-22T07:36:51.070Z,13.63
2023-03-22T07:39:12.549Z,12.40
2023-03-22T07:41:34.076Z,9.80
2023-03-22T07:44:07.633Z,11.60
2023-03-22T07:46:32.897Z,10.23
2023-03-22T07:48:54.430Z,12.30
2023-03-22T07:51:15.995Z,11.60
2023-03-22T07:53:37.465Z,8.73
2023-03-22T07:55:58.917Z,10.97
2023-03-22T07:58:20.575Z,8.63
2023-03-22T08:00:42.073Z,7.83
2023-03-22T08:03:03.583Z,6.73
2023-03-22T08:05:25.568Z,9.50
2023-03-22T08:07:47.128Z,13.60
2023-03-22T08:10:09.140Z,6.47
2023-03-22T08:12:32.411Z,9.73
2023-03-22T08:14:53.964Z,8.60
2023-03-22T08:17:16.050Z,7.80
2023-03-22T08:19:37.539Z,10.47
2023-03-22T08:21:59.699Z,6.30
2023-03-22T08:24:21.429Z,6.33
2023-03-22T08:26:45.611Z,6.23
2023-03-22T08:29:07.560Z,5.17
2023-03-22T08:31:29.465Z,4.40
2023-03-22T08:33:51.073Z,7.95
2023-03-22T08:36:16.421Z,6.00
2023-03-22T08:38:37.970Z,4.78
2023-03-22T08:40:59.452Z,4.80
2023-03-22T08:43:20.938Z,4.93
2023-03-22T08:45:42.995Z,3.80
2023-03-22T08:48:04.897Z,4.38
2023-03-22T08:50:26.484Z,5.10
2023-03-22T08:52:47.911Z,5.55
2023-03-22T08:55:09.893Z,7.72
2023-03-22T08:57:31.593Z,4.90
2023-03-22T08:59:57.675Z,5.85
2023-03-22T09:02:19.845Z,5.25
2023-03-22T09:04:41.300Z,4.03
2023-03-22T09:07:03.013Z,3.90
2023-03-22T09:09:24.498Z,5.80
2023-03-22T09:11:46.298Z,5.18
2023-03-22T09:14:07.779Z,6.05
2023-03-22T09:16:29.248Z,5.80
2023-03-22T09:18:50.828Z,8.32
2023-03-22T09:21:12.576Z,6.10
2023-03-22T09:23:35.532Z,6.30
2023-03-22T09:26:03.924Z,5.68
2023-03-22T09:28:25.518Z,5.53
2023-03-22T09:30:47.428Z,6.35
2023-03-22T09:33:09.339Z,3.40
2023-03-22T09:35:32.111Z,4.70
2023-03-22T09:37:54.656Z,4.57
2023-03-22T09:40:17.755Z,4.90
2023-03-22T09:42:44.385Z,5.78
2023-03-22T09:45:12.802Z,5.28
2023-03-22T09:47:45.083Z,4.22
2023-03-22T09:50:14.082Z,4.05
2023-03-22T09:52:35.761Z,3.60
2023-03-22T09:54:58.954Z,4.30
2023-03-22T09:57:29.165Z,4.65
2023-03-22T09:59:57.034Z,4.93
2023-03-22T10:02:34.541Z,4.47
2023-03-22T10:05:12.694Z,5.13
2023-03-22T10:07:49.277Z,5.15
2023-03-22T10:10:24.598Z,3.65
2023-03-22T10:13:15.271Z,2.97
2023-03-22T10:15:43.244Z,4.53
2023-03-22T10:18:11.698Z,7.90
2023-03-22T10:20:59.803Z,3.45
2023-03-22T10:23:37.936Z,4.10
2023-03-22T10:26:01.274Z,6.10
2023-03-22T10:28:29.967Z,4.40
2023-03-22T10:30:55.384Z,4.88
2023-03-22T10:33:28.445Z,3.72
2023-03-22T10:35:52.614Z,2.95
2023-03-22T10:38:23.448Z,5.93
2023-03-22T10:40:46.445Z,4.15
2023-03-22T10:43:34.825Z,5.90
2023-03-22T10:45:58.579Z,5.25
2023-03-22T10:48:33.110Z,3.78
2023-03-22T10:50:56.405Z,2.33
2023-03-22T10:53:29.446Z,4.20
2023-03-22T10:55:51.348Z,2.30
2023-03-22T10:58:17.224Z,2.33
2023-03-22T11:00:43.368Z,2.45
2023-03-22T11:03:06.372Z,3.88
2023-03-22T11:05:29.902Z,2.30
2023-03-22T11:07:51.584Z,6.75
2023-03-22T11:10:21.804Z,4.38
2023-03-22T11:12:56.596Z,2.63
2023-03-22T11:15:28.845Z,5.05
2023-03-22T11:17:50.964Z,2.35
2023-03-22T11:20:17.086Z,4.25
2023-03-22T11:22:41.349Z,1.73
2023-03-22T11:25:07.063Z,3.45
2023-03-22T11:27:31.240Z,3.97
2023-03-22T11:29:57.258Z,2.97
2023-03-22T11:32:37.678Z,5.53
2023-03-22T11:35:11.560Z,2.95
2023-03-22T11:37:33.342Z,1.98
2023-03-22T11:40:01.727Z,1.38
2023-03-22T11:42:23.294Z,2.40
2023-03-22T11:44:44.933Z,3.22
2023-03-22T11:47:08.788Z,1.90
2023-03-22T11:49:46.341Z,2.63
2023-03-22T11:52:16.312Z,3.40
2023-03-22T11:54:39.635Z,1.80
2023-03-22T11:57:05.081Z,2.78
2023-03-22T11:59:36.878Z,2.25
2023-03-22T12:02:06.562Z,1.60
2023-03-22T12:04:31.329Z,2.03
2023-03-22T12:06:56.671Z,2.22
2023-03-22T12:09:46.333Z,2.75
2023-03-22T12:12:23.043Z,5.15
2023-03-22T12:15:07.756Z,2.38
2023-03-22T12:17:33.952Z,3.55
2023-03-22T12:20:07.007Z,3.05
2023-03-22T12:22:32.652Z,2.30
2023-03-22T12:24:54.196Z,1.65
2023-03-22T12:27:26.885Z,4.15
2023-03-22T12:29:54.820Z,2.22
2023-03-22T12:32:21.963Z,2.17
2023-03-22T12:34:48.167Z,2.83
2023-03-22T12:37:17.694Z,4.32
2023-03-22T12:39:46.207Z,2.33
2023-03-22T12:42:23.259Z,2.00
2023-03-22T12:44:55.567Z,3.55
2023-03-22T12:47:38.436Z,5.35
2023-03-22T12:50:23.628Z,1.55
2023-03-22T12:52:51.045Z,2.50
2023-03-22T12:55:23.714Z,2.53
2023-03-22T12:57:51.220Z,3.55
2023-03-22T13:00:16.013Z,3.08
2023-03-22T13:02:38.107Z,2.15
2023-03-22T13:05:02.082Z,3.42
2023-03-22T13:07:37.747Z,2.80
2023-03-22T13:10:01.178Z,2.17
2023-03-22T13:12:22.993Z,2.60
2023-03-22T13:14:56.155Z,1.63
2023-03-22T13:17:23.780Z,2.65
2023-03-22T13:20:07.801Z,3.22
2023-03-22T13:22:50.992Z,4.53
2023-03-22T13:25:17.164Z,2.05
2023-03-22T13:27:54.055Z,2.28
2023-03-22T13:30:22.159Z,3.58
2023-03-22T13:33:21.296Z,2.15
2023-03-22T13:35:51.200Z,2.33
2023-03-22T13:38:21.895Z,4.72
2023-03-22T13:40:52.037Z,2.75
2023-03-22T13:43:25.261Z,3.42
2023-03-22T13:46:11.314Z,3.13
2023-03-22T13:48:48.505Z,3.88
2023-03-22T13:51:14.363Z,3.03
2023-03-22T13:53:37.386Z,2.28
2023-03-22T13:56:03.710Z,3.53
2023-03-22T13:58:45.321Z,2.33
2023-03-22T14:01:16.046Z,3.50
2023-03-22T14:03:42.782Z,2.67
2023-03-22T14:06:23.385Z,2.15
2023-03-22T14:08:47.243Z,2.60
2023-03-22T14:11:26.562Z,1.45
2023-03-22T14:13:52.007Z,2.15
2023-03-22T14:16:35.364Z,3.33
2023-03-22T14:18:57.542Z,2.10
2023-03-22T14:21:25.527Z,4.10
